sensor_id;sensor_type;location;lat;lon;timestamp;P1;durP1;ratioP1;P2;durP2;ratioP2
43793;SDS011;29414;44.798;20.366;2023-10-13T00:00:27;12.57;;;9.18;;
43793;SDS011;29414;44.798;20.366;2023-10-13T00:04:30;12.65;;;8.82;;
43793;SDS011;29414;44.798;20.366;2023-10-13T00:08:32;14.02;;;9.75;;
43793;SDS011;29414;44.798;20.366;2023-10-13T00:12:33;15.57;;;9.90;;
43793;SDS011;29414;44.798;20.366;2023-10-13T00:16:37;12.60;;;8.52;;
43793;SDS011;29414;44.798;20.366;2023-10-13T00:20:40;14.90;;;8.35;;
43793;SDS011;29414;44.798;20.366;2023-10-13T00:24:42;18.15;;;9.23;;
43793;SDS011;29414;44.798;20.366;2023-10-13T00:28:42;17.27;;;9.48;;
43793;SDS011;29414;44.798;20.366;2023-10-13T00:32:47;13.30;;;9.18;;
43793;SDS011;29414;44.798;20.366;2023-10-13T00:36:55;17.77;;;9.70;;
43793;SDS011;29414;44.798;20.366;2023-10-13T00:41:14;15.82;;;9.00;;
43793;SDS011;29414;44.798;20.366;2023-10-13T00:45:16;16.17;;;8.52;;
43793;SDS011;29414;44.798;20.366;2023-10-13T00:49:17;10.88;;;7.05;;
43793;SDS011;29414;44.798;20.366;2023-10-13T00:53:17;15.00;;;8.02;;
43793;SDS011;29414;44.798;20.366;2023-10-13T00:57:21;13.80;;;9.15;;
43793;SDS011;29414;44.798;20.366;2023-10-13T01:01:28;13.32;;;9.75;;
43793;SDS011;29414;44.798;20.366;2023-10-13T01:05:35;13.50;;;8.57;;
43793;SDS011;29414;44.798;20.366;2023-10-13T01:09:40;11.95;;;7.88;;
43793;SDS011;29414;44.798;20.366;2023-10-13T01:13:42;14.43;;;9.65;;
43793;SDS011;29414;44.798;20.366;2023-10-13T01:17:42;17.30;;;12.40;;
43793;SDS011;29414;44.798;20.366;2023-10-13T01:21:47;23.00;;;12.40;;
43793;SDS011;29414;44.798;20.366;2023-10-13T01:25:47;22.08;;;14.60;;
43793;SDS011;29414;44.798;20.366;2023-10-13T01:29:48;19.13;;;13.30;;
43793;SDS011;29414;44.798;20.366;2023-10-13T01:33:58;18.55;;;12.50;;
43793;SDS011;29414;44.798;20.366;2023-10-13T01:38:01;22.45;;;13.90;;
43793;SDS011;29414;44.798;20.366;2023-10-13T01:42:02;21.98;;;14.02;;
43793;SDS011;29414;44.798;20.366;2023-10-13T01:46:02;18.98;;;15.52;;
43793;SDS011;29414;44.798;20.366;2023-10-13T01:50:03;20.85;;;14.40;;
43793;SDS011;29414;44.798;20.366;2023-10-13T01:54:21;20.25;;;14.77;;
43793;SDS011;29414;44.798;20.366;2023-10-13T01:58:21;17.60;;;14.38;;
43793;SDS011;29414;44.798;20.366;2023-10-13T02:02:22;21.77;;;14.00;;
43793;SDS011;29414;44.798;20.366;2023-10-13T02:06:33;22.45;;;13.45;;
43793;SDS011;29414;44.798;20.366;2023-10-13T02:10:33;23.83;;;13.88;;
43793;SDS011;29414;44.798;20.366;2023-10-13T02:14:34;21.20;;;12.85;;
43793;SDS011;29414;44.798;20.366;2023-10-13T02:18:36;17.20;;;11.90;;
43793;SDS011;29414;44.798;20.366;2023-10-13T02:22:43;20.40;;;11.93;;
43793;SDS011;29414;44.798;20.366;2023-10-13T02:26:52;15.70;;;12.50;;
43793;SDS011;29414;44.798;20.366;2023-10-13T02:30:52;14.73;;;11.70;;
43793;SDS011;29414;44.798;20.366;2023-10-13T02:34:53;13.98;;;10.95;;
43793;SDS011;29414;44.798;20.366;2023-10-13T02:38:58;16.88;;;11.80;;
43793;SDS011;29414;44.798;20.366;2023-10-13T02:42:58;15.90;;;10.93;;
43793;SDS011;29414;44.798;20.366;2023-10-13T02:46:58;18.10;;;11.02;;
43793;SDS011;29414;44.798;20.366;2023-10-13T02:50:59;15.73;;;11.60;;
43793;SDS011;29414;44.798;20.366;2023-10-13T02:55:06;18.00;;;12.25;;
43793;SDS011;29414;44.798;20.366;2023-10-13T02:59:10;15.93;;;11.85;;
43793;SDS011;29414;44.798;20.366;2023-10-13T03:03:12;16.77;;;11.10;;
43793;SDS011;29414;44.798;20.366;2023-10-13T03:07:16;16.38;;;10.77;;
43793;SDS011;29414;44.798;20.366;2023-10-13T03:11:22;18.45;;;11.30;;
43793;SDS011;29414;44.798;20.366;2023-10-13T03:15:24;23.02;;;13.23;;
43793;SDS011;29414;44.798;20.366;2023-10-13T03:19:31;17.77;;;11.35;;
43793;SDS011;29414;44.798;20.366;2023-10-13T03:23:34;17.77;;;12.82;;
43793;SDS011;29414;44.798;20.366;2023-10-13T03:27:49;14.63;;;11.38;;
43793;SDS011;29414;44.798;20.366;2023-10-13T03:31:52;19.35;;;12.70;;
43793;SDS011;29414;44.798;20.366;2023-10-13T03:36:12;20.90;;;13.00;;
43793;SDS011;29414;44.798;20.366;2023-10-13T03:40:33;16.13;;;11.48;;
43793;SDS011;29414;44.798;20.366;2023-10-13T03:44:34;19.55;;;11.27;;
43793;SDS011;29414;44.798;20.366;2023-10-13T03:48:38;18.00;;;12.88;;
43793;SDS011;29414;44.798;20.366;2023-10-13T03:52:52;18.55;;;12.10;;
43793;SDS011;29414;44.798;20.366;2023-10-13T03:56:57;19.85;;;12.35;;
43793;SDS011;29414;44.798;20.366;2023-10-13T04:01:04;23.20;;;20.33;;
43793;SDS011;29414;44.798;20.366;2023-10-13T04:05:05;61.22;;;45.63;;
43793;SDS011;29414;44.798;20.366;2023-10-13T04:09:13;18.33;;;15.23;;
43793;SDS011;29414;44.798;20.366;2023-10-13T04:13:32;22.52;;;11.50;;
43793;SDS011;29414;44.798;20.366;2023-10-13T04:17:51;15.20;;;12.90;;
43793;SDS011;29414;44.798;20.366;2023-10-13T04:21:51;15.88;;;11.40;;
43793;SDS011;29414;44.798;20.366;2023-10-13T04:25:58;19.65;;;13.45;;
43793;SDS011;29414;44.798;20.366;2023-10-13T04:30:08;18.85;;;12.77;;
43793;SDS011;29414;44.798;20.366;2023-10-13T04:34:08;20.17;;;13.15;;
43793;SDS011;29414;44.798;20.366;2023-10-13T04:38:18;17.23;;;13.00;;
43793;SDS011;29414;44.798;20.366;2023-10-13T04:42:19;24.10;;;13.10;;
43793;SDS011;29414;44.798;20.366;2023-10-13T04:46:39;21.27;;;13.30;;
43793;SDS011;29414;44.798;20.366;2023-10-13T04:50:48;21.80;;;12.27;;
43793;SDS011;29414;44.798;20.366;2023-10-13T04:54:57;30.10;;;14.35;;
43793;SDS011;29414;44.798;20.366;2023-10-13T04:59:09;53.00;;;18.13;;
43793;SDS011;29414;44.798;20.366;2023-10-13T05:03:35;25.27;;;16.67;;
43793;SDS011;29414;44.798;20.366;2023-10-13T05:07:54;28.85;;;20.65;;
43793;SDS011;29414;44.798;20.366;2023-10-13T05:12:13;25.00;;;19.50;;
43793;SDS011;29414;44.798;20.366;2023-10-13T05:16:32;18.40;;;14.52;;
43793;SDS011;29414;44.798;20.366;2023-10-13T05:20:54;20.88;;;14.80;;
43793;SDS011;29414;44.798;20.366;2023-10-13T05:25:13;22.55;;;14.18;;
43793;SDS011;29414;44.798;20.366;2023-10-13T05:29:32;36.75;;;18.40;;
43793;SDS011;29414;44.798;20.366;2023-10-13T05:33:51;31.00;;;16.88;;
43793;SDS011;29414;44.798;20.366;2023-10-13T05:38:10;24.02;;;16.85;;
43793;SDS011;29414;44.798;20.366;2023-10-13T05:42:29;31.98;;;22.02;;
43793;SDS011;29414;44.798;20.366;2023-10-13T05:46:48;34.78;;;17.20;;
43793;SDS011;29414;44.798;20.366;2023-10-13T05:51:07;41.97;;;21.52;;
43793;SDS011;29414;44.798;20.366;2023-10-13T05:55:29;27.50;;;18.70;;
43793;SDS011;29414;44.798;20.366;2023-10-13T05:59:48;34.40;;;21.42;;
43793;SDS011;29414;44.798;20.366;2023-10-13T06:04:07;33.72;;;21.17;;
43793;SDS011;29414;44.798;20.366;2023-10-13T06:08:26;32.85;;;21.10;;
43793;SDS011;29414;44.798;20.366;2023-10-13T06:12:45;29.80;;;19.02;;
43793;SDS011;29414;44.798;20.366;2023-10-13T06:17:03;29.52;;;17.70;;
43793;SDS011;29414;44.798;20.366;2023-10-13T06:21:22;28.98;;;17.92;;
43793;SDS011;29414;44.798;20.366;2023-10-13T06:25:41;24.25;;;16.65;;
43793;SDS011;29414;44.798;20.366;2023-10-13T06:30:03;23.67;;;15.85;;
43793;SDS011;29414;44.798;20.366;2023-10-13T06:34:04;28.50;;;15.70;;
43793;SDS011;29414;44.798;20.366;2023-10-13T06:38:05;23.02;;;15.74;;
43793;SDS011;29414;44.798;20.366;2023-10-13T06:42:10;26.67;;;15.80;;
43793;SDS011;29414;44.798;20.366;2023-10-13T06:46:11;23.02;;;15.93;;
43793;SDS011;29414;44.798;20.366;2023-10-13T06:50:16;21.67;;;14.10;;
43793;SDS011;29414;44.798;20.366;2023-10-13T06:54:17;19.00;;;13.52;;
43793;SDS011;29414;44.798;20.366;2023-10-13T06:58:20;24.65;;;14.35;;
43793;SDS011;29414;44.798;20.366;2023-10-13T07:02:25;25.67;;;13.07;;
43793;SDS011;29414;44.798;20.366;2023-10-13T07:06:36;33.88;;;16.17;;
43793;SDS011;29414;44.798;20.366;2023-10-13T07:10:37;23.60;;;13.50;;
43793;SDS011;29414;44.798;20.366;2023-10-13T07:14:52;25.15;;;14.45;;
43793;SDS011;29414;44.798;20.366;2023-10-13T07:18:52;19.92;;;12.25;;
43793;SDS011;29414;44.798;20.366;2023-10-13T07:22:55;20.70;;;11.18;;
43793;SDS011;29414;44.798;20.366;2023-10-13T07:26:57;23.60;;;12.40;;
43793;SDS011;29414;44.798;20.366;2023-10-13T07:31:03;21.95;;;11.23;;
43793;SDS011;29414;44.798;20.366;2023-10-13T07:35:03;23.63;;;11.02;;
43793;SDS011;29414;44.798;20.366;2023-10-13T07:39:07;20.25;;;10.00;;
43793;SDS011;29414;44.798;20.366;2023-10-13T07:43:26;15.40;;;9.52;;
43793;SDS011;29414;44.798;20.366;2023-10-13T07:47:27;22.25;;;11.73;;
43793;SDS011;29414;44.798;20.366;2023-10-13T07:51:28;22.08;;;12.00;;
43793;SDS011;29414;44.798;20.366;2023-10-13T07:55:33;17.77;;;9.20;;
43793;SDS011;29414;44.798;20.366;2023-10-13T07:59:34;25.08;;;11.48;;
43793;SDS011;29414;44.798;20.366;2023-10-13T08:03:47;18.77;;;9.98;;
43793;SDS011;29414;44.798;20.366;2023-10-13T08:07:50;21.25;;;11.35;;
43793;SDS011;29414;44.798;20.366;2023-10-13T08:11:52;20.00;;;9.48;;
43793;SDS011;29414;44.798;20.366;2023-10-13T08:15:54;19.85;;;9.07;;
43793;SDS011;29414;44.798;20.366;2023-10-13T08:19:54;17.38;;;9.50;;
43793;SDS011;29414;44.798;20.366;2023-10-13T08:23:56;15.68;;;8.82;;
43793;SDS011;29414;44.798;20.366;2023-10-13T08:27:56;20.35;;;9.27;;
43793;SDS011;29414;44.798;20.366;2023-10-13T08:32:26;22.85;;;9.38;;
43793;SDS011;29414;44.798;20.366;2023-10-13T08:36:35;19.00;;;10.45;;
43793;SDS011;29414;44.798;20.366;2023-10-13T08:40:38;19.73;;;9.43;;
43793;SDS011;29414;44.798;20.366;2023-10-13T08:48:45;21.25;;;9.70;;
43793;SDS011;29414;44.798;20.366;2023-10-13T08:52:47;20.30;;;9.57;;
43793;SDS011;29414;44.798;20.366;2023-10-13T08:56:49;17.42;;;9.27;;
43793;SDS011;29414;44.798;20.366;2023-10-13T09:00:56;19.02;;;10.05;;
43793;SDS011;29414;44.798;20.366;2023-10-13T09:05:09;19.95;;;11.60;;
43793;SDS011;29414;44.798;20.366;2023-10-13T09:09:30;16.45;;;11.88;;
43793;SDS011;29414;44.798;20.366;2023-10-13T09:13:42;18.52;;;9.57;;
43793;SDS011;29414;44.798;20.366;2023-10-13T09:21:52;16.98;;;9.02;;
43793;SDS011;29414;44.798;20.366;2023-10-13T09:25:54;17.50;;;7.82;;
43793;SDS011;29414;44.798;20.366;2023-10-13T09:30:09;25.10;;;10.00;;
43793;SDS011;29414;44.798;20.366;2023-10-13T09:34:21;15.52;;;8.40;;
43793;SDS011;29414;44.798;20.366;2023-10-13T09:38:23;15.05;;;7.90;;
43793;SDS011;29414;44.798;20.366;2023-10-13T09:42:25;15.80;;;7.30;;
43793;SDS011;29414;44.798;20.366;2023-10-13T09:46:26;16.73;;;7.20;;
43793;SDS011;29414;44.798;20.366;2023-10-13T09:50:28;18.95;;;7.93;;
43793;SDS011;29414;44.798;20.366;2023-10-13T09:58:34;12.80;;;7.03;;
43793;SDS011;29414;44.798;20.366;2023-10-13T10:02:36;12.85;;;6.28;;
43793;SDS011;29414;44.798;20.366;2023-10-13T10:06:55;11.07;;;7.13;;
43793;SDS011;29414;44.798;20.366;2023-10-13T10:10:58;13.73;;;6.38;;
43793;SDS011;29414;44.798;20.366;2023-10-13T10:19:01;14.82;;;6.65;;
43793;SDS011;29414;44.798;20.366;2023-10-13T10:23:07;20.85;;;7.35;;
43793;SDS011;29414;44.798;20.366;2023-10-13T10:27:25;15.70;;;7.22;;
43793;SDS011;29414;44.798;20.366;2023-10-13T10:31:31;16.33;;;6.47;;
43793;SDS011;29414;44.798;20.366;2023-10-13T10:35:34;14.25;;;7.43;;
43793;SDS011;29414;44.798;20.366;2023-10-13T10:39:36;19.50;;;6.72;;
43793;SDS011;29414;44.798;20.366;2023-10-13T10:43:47;14.75;;;7.80;;
43793;SDS011;29414;44.798;20.366;2023-10-13T10:47:47;17.33;;;7.95;;
43793;SDS011;29414;44.798;20.366;2023-10-13T10:51:48;18.10;;;7.50;;
43793;SDS011;29414;44.798;20.366;2023-10-13T10:55:48;17.13;;;8.20;;
43793;SDS011;29414;44.798;20.366;2023-10-13T10:59:49;21.05;;;9.27;;
43793;SDS011;29414;44.798;20.366;2023-10-13T11:04:09;19.17;;;8.20;;
43793;SDS011;29414;44.798;20.366;2023-10-13T11:08:24;21.67;;;9.15;;
43793;SDS011;29414;44.798;20.366;2023-10-13T11:12:31;17.70;;;7.63;;
43793;SDS011;29414;44.798;20.366;2023-10-13T11:16:34;16.38;;;7.38;;
43793;SDS011;29414;44.798;20.366;2023-10-13T11:20:34;14.30;;;7.78;;
43793;SDS011;29414;44.798;20.366;2023-10-13T11:24:44;18.30;;;8.23;;
43793;SDS011;29414;44.798;20.366;2023-10-13T11:28:51;17.20;;;8.13;;
43793;SDS011;29414;44.798;20.366;2023-10-13T11:33:01;16.40;;;8.57;;
43793;SDS011;29414;44.798;20.366;2023-10-13T11:37:06;16.25;;;7.65;;
43793;SDS011;29414;44.798;20.366;2023-10-13T11:41:26;11.18;;;7.18;;
43793;SDS011;29414;44.798;20.366;2023-10-13T11:45:33;10.07;;;6.55;;
43793;SDS011;29414;44.798;20.366;2023-10-13T11:49:36;19.70;;;7.63;;
43793;SDS011;29414;44.798;20.366;2023-10-13T11:53:37;17.92;;;6.70;;
43793;SDS011;29414;44.798;20.366;2023-10-13T11:57:38;15.63;;;6.90;;
43793;SDS011;29414;44.798;20.366;2023-10-13T12:01:38;17.13;;;7.93;;
43793;SDS011;29414;44.798;20.366;2023-10-13T12:05:57;17.92;;;8.57;;
43793;SDS011;29414;44.798;20.366;2023-10-13T12:10:19;17.38;;;7.40;;
43793;SDS011;29414;44.798;20.366;2023-10-13T12:14:49;20.90;;;8.38;;
43793;SDS011;29414;44.798;20.366;2023-10-13T12:18:55;18.85;;;8.00;;
43793;SDS011;29414;44.798;20.366;2023-10-13T12:22:56;21.35;;;7.38;;
43793;SDS011;29414;44.798;20.366;2023-10-13T12:26:56;16.85;;;6.57;;
43793;SDS011;29414;44.798;20.366;2023-10-13T12:31:02;15.20;;;6.88;;
43793;SDS011;29414;44.798;20.366;2023-10-13T12:35:04;20.88;;;7.07;;
43793;SDS011;29414;44.798;20.366;2023-10-13T12:39:04;12.50;;;4.93;;
43793;SDS011;29414;44.798;20.366;2023-10-13T12:43:07;12.20;;;5.20;;
43793;SDS011;29414;44.798;20.366;2023-10-13T12:47:40;16.67;;;5.93;;
43793;SDS011;29414;44.798;20.366;2023-10-13T12:51:58;10.93;;;5.00;;
43793;SDS011;29414;44.798;20.366;2023-10-13T12:55:59;8.63;;;5.00;;
43793;SDS011;29414;44.798;20.366;2023-10-13T12:59:59;10.38;;;5.32;;
43793;SDS011;29414;44.798;20.366;2023-10-13T13:03:59;14.65;;;6.30;;
43793;SDS011;29414;44.798;20.366;2023-10-13T13:08:03;10.23;;;5.22;;
43793;SDS011;29414;44.798;20.366;2023-10-13T13:12:05;19.08;;;6.03;;
43793;SDS011;29414;44.798;20.366;2023-10-13T13:16:13;8.60;;;5.05;;
43793;SDS011;29414;44.798;20.366;2023-10-13T13:20:14;10.57;;;5.10;;
43793;SDS011;29414;44.798;20.366;2023-10-13T13:24:28;11.32;;;6.82;;
43793;SDS011;29414;44.798;20.366;2023-10-13T13:28:30;11.77;;;6.47;;
43793;SDS011;29414;44.798;20.366;2023-10-13T13:32:38;14.77;;;6.70;;
43793;SDS011;29414;44.798;20.366;2023-10-13T13:36:38;8.88;;;5.53;;
43793;SDS011;29414;44.798;20.366;2023-10-13T13:40:40;21.55;;;6.32;;
43793;SDS011;29414;44.798;20.366;2023-10-13T13:44:44;11.97;;;6.70;;
43793;SDS011;29414;44.798;20.366;2023-10-13T13:48:46;55.20;;;10.00;;
43793;SDS011;29414;44.798;20.366;2023-10-13T13:52:51;15.20;;;6.78;;
43793;SDS011;29414;44.798;20.366;2023-10-13T13:56:52;11.40;;;7.13;;
43793;SDS011;29414;44.798;20.366;2023-10-13T14:00:58;14.65;;;7.07;;
43793;SDS011;29414;44.798;20.366;2023-10-13T14:05:00;14.55;;;7.47;;
43793;SDS011;29414;44.798;20.366;2023-10-13T14:09:02;22.33;;;7.55;;
43793;SDS011;29414;44.798;20.366;2023-10-13T14:13:05;13.45;;;7.43;;
43793;SDS011;29414;44.798;20.366;2023-10-13T14:17:14;17.10;;;7.85;;
43793;SDS011;29414;44.798;20.366;2023-10-13T14:21:14;20.45;;;7.00;;
43793;SDS011;29414;44.798;20.366;2023-10-13T14:25:24;15.77;;;7.82;;
43793;SDS011;29414;44.798;20.366;2023-10-13T14:29:28;32.15;;;9.50;;
43793;SDS011;29414;44.798;20.366;2023-10-13T14:33:28;15.85;;;7.80;;
43793;SDS011;29414;44.798;20.366;2023-10-13T14:37:31;12.27;;;7.28;;
43793;SDS011;29414;44.798;20.366;2023-10-13T14:41:31;17.42;;;8.15;;
43793;SDS011;29414;44.798;20.366;2023-10-13T14:45:34;16.45;;;7.40;;
43793;SDS011;29414;44.798;20.366;2023-10-13T14:49:35;12.88;;;7.97;;
43793;SDS011;29414;44.798;20.366;2023-10-13T14:53:35;16.50;;;7.45;;
43793;SDS011;29414;44.798;20.366;2023-10-13T14:57:35;14.48;;;8.82;;
43793;SDS011;29414;44.798;20.366;2023-10-13T15:01:37;11.98;;;8.68;;
43793;SDS011;29414;44.798;20.366;2023-10-13T15:05:38;14.95;;;7.82;;
43793;SDS011;29414;44.798;20.366;2023-10-13T15:09:38;12.63;;;6.85;;
43793;SDS011;29414;44.798;20.366;2023-10-13T15:13:42;12.20;;;7.50;;
43793;SDS011;29414;44.798;20.366;2023-10-13T15:17:43;11.35;;;7.10;;
43793;SDS011;29414;44.798;20.366;2023-10-13T15:21:43;10.88;;;6.53;;
43793;SDS011;29414;44.798;20.366;2023-10-13T15:25:49;14.70;;;7.30;;
43793;SDS011;29414;44.798;20.366;2023-10-13T15:29:49;13.80;;;8.73;;
43793;SDS011;29414;44.798;20.366;2023-10-13T15:33:51;19.23;;;7.97;;
43793;SDS011;29414;44.798;20.366;2023-10-13T15:37:55;20.80;;;7.82;;
43793;SDS011;29414;44.798;20.366;2023-10-13T15:41:56;16.27;;;8.02;;
43793;SDS011;29414;44.798;20.366;2023-10-13T15:45:59;18.15;;;8.55;;
43793;SDS011;29414;44.798;20.366;2023-10-13T15:50:00;17.17;;;7.88;;
43793;SDS011;29414;44.798;20.366;2023-10-13T15:54:03;19.77;;;8.43;;
43793;SDS011;29414;44.798;20.366;2023-10-13T15:58:04;15.55;;;9.27;;
43793;SDS011;29414;44.798;20.366;2023-10-13T16:02:07;20.52;;;9.23;;
43793;SDS011;29414;44.798;20.366;2023-10-13T16:06:12;20.33;;;9.90;;
43793;SDS011;29414;44.798;20.366;2023-10-13T16:10:12;18.50;;;9.63;;
43793;SDS011;29414;44.798;20.366;2023-10-13T16:14:13;25.42;;;11.40;;
43793;SDS011;29414;44.798;20.366;2023-10-13T16:18:17;19.48;;;10.20;;
43793;SDS011;29414;44.798;20.366;2023-10-13T16:22:22;15.77;;;10.68;;
43793;SDS011;29414;44.798;20.366;2023-10-13T16:26:22;17.48;;;10.32;;
43793;SDS011;29414;44.798;20.366;2023-10-13T16:30:22;19.92;;;11.93;;
43793;SDS011;29414;44.798;20.366;2023-10-13T16:34:22;18.80;;;10.38;;
43793;SDS011;29414;44.798;20.366;2023-10-13T16:38:25;19.05;;;9.68;;
43793;SDS011;29414;44.798;20.366;2023-10-13T16:42:26;14.55;;;8.65;;
43793;SDS011;29414;44.798;20.366;2023-10-13T16:46:26;16.52;;;9.93;;
43793;SDS011;29414;44.798;20.366;2023-10-13T16:50:26;14.73;;;9.63;;
43793;SDS011;29414;44.798;20.366;2023-10-13T16:54:28;15.70;;;9.77;;
43793;SDS011;29414;44.798;20.366;2023-10-13T16:58:29;12.73;;;9.88;;
43793;SDS011;29414;44.798;20.366;2023-10-13T17:06:37;22.80;;;11.10;;
43793;SDS011;29414;44.798;20.366;2023-10-13T17:10:37;21.33;;;11.35;;
43793;SDS011;29414;44.798;20.366;2023-10-13T17:14:37;18.75;;;10.77;;
43793;SDS011;29414;44.798;20.366;2023-10-13T17:18:40;22.88;;;12.25;;
43793;SDS011;29414;44.798;20.366;2023-10-13T17:22:40;23.30;;;13.32;;
43793;SDS011;29414;44.798;20.366;2023-10-13T17:26:41;28.02;;;18.65;;
43793;SDS011;29414;44.798;20.366;2023-10-13T17:30:42;28.63;;;14.48;;
43793;SDS011;29414;44.798;20.366;2023-10-13T17:34:44;21.83;;;12.25;;
43793;SDS011;29414;44.798;20.366;2023-10-13T17:38:44;22.25;;;14.52;;
43793;SDS011;29414;44.798;20.366;2023-10-13T17:42:45;17.52;;;10.23;;
43793;SDS011;29414;44.798;20.366;2023-10-13T17:46:49;15.43;;;10.70;;
43793;SDS011;29414;44.798;20.366;2023-10-13T17:50:49;22.23;;;11.18;;
43793;SDS011;29414;44.798;20.366;2023-10-13T17:54:50;18.38;;;11.13;;
43793;SDS011;29414;44.798;20.366;2023-10-13T17:58:51;21.33;;;11.40;;
43793;SDS011;29414;44.798;20.366;2023-10-13T18:02:53;19.08;;;13.23;;
43793;SDS011;29414;44.798;20.366;2023-10-13T18:06:54;22.30;;;13.93;;
43793;SDS011;29414;44.798;20.366;2023-10-13T18:10:56;26.35;;;15.68;;
43793;SDS011;29414;44.798;20.366;2023-10-13T18:14:58;24.13;;;15.20;;
43793;SDS011;29414;44.798;20.366;2023-10-13T18:18:59;31.83;;;16.00;;
43793;SDS011;29414;44.798;20.366;2023-10-13T18:22:59;29.00;;;17.60;;
43793;SDS011;29414;44.798;20.366;2023-10-13T18:26:59;33.45;;;19.55;;
43793;SDS011;29414;44.798;20.366;2023-10-13T18:31:00;27.95;;;19.63;;
43793;SDS011;29414;44.798;20.366;2023-10-13T18:35:10;37.42;;;21.48;;
43793;SDS011;29414;44.798;20.366;2023-10-13T18:39:18;35.28;;;19.38;;
43793;SDS011;29414;44.798;20.366;2023-10-13T18:43:19;40.78;;;23.42;;
43793;SDS011;29414;44.798;20.366;2023-10-13T18:47:19;42.17;;;28.38;;
43793;SDS011;29414;44.798;20.366;2023-10-13T18:51:19;30.20;;;20.55;;
43793;SDS011;29414;44.798;20.366;2023-10-13T18:55:20;33.83;;;19.35;;
43793;SDS011;29414;44.798;20.366;2023-10-13T18:59:20;35.17;;;19.52;;
43793;SDS011;29414;44.798;20.366;2023-10-13T19:03:22;28.30;;;18.95;;
43793;SDS011;29414;44.798;20.366;2023-10-13T19:07:26;33.65;;;20.92;;
43793;SDS011;29414;44.798;20.366;2023-10-13T19:11:26;30.08;;;23.35;;
43793;SDS011;29414;44.798;20.366;2023-10-13T19:15:27;34.67;;;19.55;;
43793;SDS011;29414;44.798;20.366;2023-10-13T19:19:27;30.17;;;19.98;;
43793;SDS011;29414;44.798;20.366;2023-10-13T19:23:32;36.25;;;23.25;;
43793;SDS011;29414;44.798;20.366;2023-10-13T19:27:32;39.95;;;20.80;;
43793;SDS011;29414;44.798;20.366;2023-10-13T19:31:33;34.55;;;21.75;;
43793;SDS011;29414;44.798;20.366;2023-10-13T19:35:38;36.38;;;24.08;;
43793;SDS011;29414;44.798;20.366;2023-10-13T19:39:40;28.60;;;21.05;;
43793;SDS011;29414;44.798;20.366;2023-10-13T19:43:53;33.55;;;21.67;;
43793;SDS011;29414;44.798;20.366;2023-10-13T19:47:56;33.65;;;22.65;;
43793;SDS011;29414;44.798;20.366;2023-10-13T19:51:57;35.45;;;22.23;;
43793;SDS011;29414;44.798;20.366;2023-10-13T19:55:57;37.92;;;22.92;;
43793;SDS011;29414;44.798;20.366;2023-10-13T19:59:58;31.52;;;22.17;;
43793;SDS011;29414;44.798;20.366;2023-10-13T20:03:58;31.33;;;21.67;;
43793;SDS011;29414;44.798;20.366;2023-10-13T20:07:59;28.83;;;19.63;;
43793;SDS011;29414;44.798;20.366;2023-10-13T20:12:01;28.83;;;20.92;;
43793;SDS011;29414;44.798;20.366;2023-10-13T20:16:02;29.42;;;21.63;;
43793;SDS011;29414;44.798;20.366;2023-10-13T20:20:07;33.97;;;23.87;;
43793;SDS011;29414;44.798;20.366;2023-10-13T20:24:08;28.60;;;22.92;;
43793;SDS011;29414;44.798;20.366;2023-10-13T20:28:08;39.03;;;22.50;;
43793;SDS011;29414;44.798;20.366;2023-10-13T20:32:09;37.58;;;25.75;;
43793;SDS011;29414;44.798;20.366;2023-10-13T20:36:10;32.22;;;21.88;;
43793;SDS011;29414;44.798;20.366;2023-10-13T20:40:11;30.85;;;23.52;;
43793;SDS011;29414;44.798;20.366;2023-10-13T20:44:24;31.35;;;23.35;;
43793;SDS011;29414;44.798;20.366;2023-10-13T20:48:28;30.35;;;22.42;;
43793;SDS011;29414;44.798;20.366;2023-10-13T20:52:30;32.78;;;21.75;;
43793;SDS011;29414;44.798;20.366;2023-10-13T20:56:31;32.30;;;23.13;;
43793;SDS011;29414;44.798;20.366;2023-10-13T21:00:33;24.23;;;21.65;;
43793;SDS011;29414;44.798;20.366;2023-10-13T21:04:35;32.45;;;23.73;;
43793;SDS011;29414;44.798;20.366;2023-10-13T21:08:42;29.67;;;23.30;;
43793;SDS011;29414;44.798;20.366;2023-10-13T21:12:47;26.75;;;22.33;;
43793;SDS011;29414;44.798;20.366;2023-10-13T21:16:48;31.35;;;23.45;;
43793;SDS011;29414;44.798;20.366;2023-10-13T21:20:52;28.73;;;23.60;;
43793;SDS011;29414;44.798;20.366;2023-10-13T21:24:55;32.50;;;24.63;;
43793;SDS011;29414;44.798;20.366;2023-10-13T21:28:56;35.63;;;23.27;;
43793;SDS011;29414;44.798;20.366;2023-10-13T21:32:56;35.28;;;25.30;;
43793;SDS011;29414;44.798;20.366;2023-10-13T21:36:57;30.90;;;24.90;;
43793;SDS011;29414;44.798;20.366;2023-10-13T21:41:05;31.50;;;25.90;;
43793;SDS011;29414;44.798;20.366;2023-10-13T21:45:09;29.30;;;22.33;;
43793;SDS011;29414;44.798;20.366;2023-10-13T21:49:10;26.08;;;22.45;;
43793;SDS011;29414;44.798;20.366;2023-10-13T21:53:10;26.38;;;22.75;;
43793;SDS011;29414;44.798;20.366;2023-10-13T21:57:13;37.85;;;23.50;;
43793;SDS011;29414;44.798;20.366;2023-10-13T22:01:14;33.08;;;23.77;;
43793;SDS011;29414;44.798;20.366;2023-10-13T22:05:23;36.58;;;26.88;;
43793;SDS011;29414;44.798;20.366;2023-10-13T22:09:23;34.35;;;28.27;;
43793;SDS011;29414;44.798;20.366;2023-10-13T22:13:24;37.72;;;27.23;;
43793;SDS011;29414;44.798;20.366;2023-10-13T22:17:24;33.47;;;27.42;;
43793;SDS011;29414;44.798;20.366;2023-10-13T22:21:25;36.95;;;29.30;;
43793;SDS011;29414;44.798;20.366;2023-10-13T22:25:27;39.42;;;30.33;;
43793;SDS011;29414;44.798;20.366;2023-10-13T22:29:30;40.67;;;27.88;;
43793;SDS011;29414;44.798;20.366;2023-10-13T22:33:30;34.80;;;29.63;;
43793;SDS011;29414;44.798;20.366;2023-10-13T22:37:30;32.72;;;23.48;;
43793;SDS011;29414;44.798;20.366;2023-10-13T22:41:31;36.28;;;25.52;;
43793;SDS011;29414;44.798;20.366;2023-10-13T22:45:33;34.45;;;23.70;;
43793;SDS011;29414;44.798;20.366;2023-10-13T22:49:33;43.17;;;24.77;;
43793;SDS011;29414;44.798;20.366;2023-10-13T22:53:34;33.63;;;26.45;;
43793;SDS011;29414;44.798;20.366;2023-10-13T22:57:34;34.33;;;26.27;;
43793;SDS011;29414;44.798;20.366;2023-10-13T23:01:34;31.60;;;25.02;;
43793;SDS011;29414;44.798;20.366;2023-10-13T23:05:42;34.70;;;25.15;;
43793;SDS011;29414;44.798;20.366;2023-10-13T23:09:51;35.00;;;26.85;;
43793;SDS011;29414;44.798;20.366;2023-10-13T23:13:52;32.70;;;24.30;;
43793;SDS011;29414;44.798;20.366;2023-10-13T23:17:52;30.13;;;23.90;;
43793;SDS011;29414;44.798;20.366;2023-10-13T23:21:53;32.25;;;24.85;;
43793;SDS011;29414;44.798;20.366;2023-10-13T23:25:54;30.58;;;24.60;;
43793;SDS011;29414;44.798;20.366;2023-10-13T23:29:55;32.55;;;24.10;;
43793;SDS011;29414;44.798;20.366;2023-10-13T23:33:55;29.08;;;22.77;;
43793;SDS011;29414;44.798;20.366;2023-10-13T23:37:56;31.17;;;25.08;;
43793;SDS011;29414;44.798;20.366;2023-10-13T23:41:59;33.13;;;24.27;;
43793;SDS011;29414;44.798;20.366;2023-10-13T23:46:00;30.02;;;25.73;;
43793;SDS011;29414;44.798;20.366;2023-10-13T23:50:00;35.40;;;28.80;;
43793;SDS011;29414;44.798;20.366;2023-10-13T23:54:00;24.00;;;21.33;;
43793;SDS011;29414;44.798;20.366;2023-10-13T23:58:14;25.73;;;19.60;;
